KBKE

Baker City Municipal Airport

Baker City, Oregon, USA
KBKE 202340Z 2100/2124 32010KT P6SM SKC FM210400 VRB03KT P6SM FEW120 FM211800 33015G25KT P6SM SKC
Issued Valid From Valid To
Apr-20 @ 23:40 UTC
(4 hours ago)
Apr-21 @ 00:00 UTC
(4 hours ago)
Apr-22 @ 00:00 UTC
(in 20 hours)
Apr-21 @ 00:00 to Apr-21 @ 04:00
KBKE 202340Z 2100/2124 32010KT P6SM SKC
Wind Visibility Clouds
320° at 10 knots Greater than 6 miles
  • Clear skies
From Apr-21 @ 04:00 to Apr-21 @ 18:00
FM210400 VRB03KT P6SM FEW120
Wind Visibility Clouds
Variable at 3 knots Greater than 6 miles
  • Few at 12,000' AGL
From Apr-21 @ 18:00 to Apr-22 @ 00:00
FM211800 33015G25KT P6SM SKC
Wind Visibility Clouds
330° at 15 knots
 Gusting to 25 knots
Greater than 6 miles
  • Clear skies
KBKE 202340Z 2100/2124 32010KT P6SM SKC FM210400 VRB03KT P6SM FEW120 FM211800 33015G25KT P6SM SKC
Issued Apr-20 @ 23:40 UTC
(4 hours ago)
Valid From Apr-21 @ 00:00 UTC
(4 hours ago)
Valid To Apr-22 @ 00:00 UTC
(in 20 hours)
Apr-21 @ 00:00 - Apr-21 @ 04:00
Wind Visibility
320° at 10 knots Greater than 6 miles
Clouds
  • Clear skies
From Apr-21 @ 04:00 - Apr-21 @ 18:00
Wind Visibility
Variable at 3 knots Greater than 6 miles
Clouds
  • Few at 12,000' AGL
From Apr-21 @ 18:00 - Apr-22 @ 00:00
Wind Visibility
330° at 15 knots
 Gusting to 25 knots
Greater than 6 miles
Clouds
  • Clear skies